createdAt,value
2022-08-26T00:00:56.629Z,3.88
2022-08-26T00:03:26.478Z,4.28
2022-08-26T00:05:56.276Z,4.28
2022-08-26T00:08:25.518Z,4.30
2022-08-26T00:10:54.100Z,3.80
2022-08-26T00:13:22.569Z,4.05
2022-08-26T00:15:51.325Z,5.45
2022-08-26T00:18:22.711Z,5.45
2022-08-26T00:20:52.303Z,4.60
2022-08-26T00:23:24.273Z,4.30
2022-08-26T00:25:53.454Z,3.60
2022-08-26T00:28:22.939Z,4.15
2022-08-26T00:30:52.403Z,4.00
2022-08-26T00:33:23.074Z,4.10
2022-08-26T00:35:51.804Z,3.97
2022-08-26T00:38:22.858Z,4.63
2022-08-26T00:40:56.218Z,4.40
2022-08-26T00:43:26.390Z,4.38
2022-08-26T00:46:00.543Z,4.57
2022-08-26T00:48:34.732Z,4.60
2022-08-26T00:51:16.803Z,4.65
2022-08-26T00:53:52.121Z,5.78
2022-08-26T00:56:24.432Z,5.50
2022-08-26T00:58:53.221Z,5.85
2022-08-26T01:01:23.139Z,5.88
2022-08-26T01:03:55.488Z,6.57
2022-08-26T01:06:25.964Z,7.05
2022-08-26T01:08:54.969Z,6.70
2022-08-26T01:11:24.003Z,7.18
2022-08-26T01:13:54.642Z,6.82
2022-08-26T01:16:24.742Z,7.10
2022-08-26T01:19:00.702Z,6.57
2022-08-26T01:21:40.499Z,6.85
2022-08-26T01:24:12.201Z,6.38
2022-08-26T01:26:44.698Z,5.93
2022-08-26T01:29:19.181Z,5.80
2022-08-26T01:31:55.349Z,6.43
2022-08-26T01:34:27.576Z,5.90
2022-08-26T01:37:04.695Z,6.10
2022-08-26T01:39:36.813Z,6.43
2022-08-26T01:42:10.396Z,5.22
2022-08-26T01:44:46.142Z,6.13
2022-08-26T01:47:18.299Z,5.93
2022-08-26T01:49:51.365Z,5.80
2022-08-26T01:52:27.577Z,5.18
2022-08-26T01:57:28.333Z,5.70
2022-08-26T02:00:00.204Z,5.63
2022-08-26T02:02:29.426Z,5.60
2022-08-26T02:05:02.872Z,5.40
2022-08-26T02:07:33.344Z,6.28
2022-08-26T02:10:03.297Z,5.32
2022-08-26T02:12:32.562Z,5.63
2022-08-26T02:15:06.435Z,5.82
2022-08-26T02:17:40.135Z,6.18
2022-08-26T02:20:13.430Z,5.53
2022-08-26T02:22:45.181Z,6.32
2022-08-26T02:25:22.977Z,6.28
2022-08-26T02:27:53.201Z,6.10
2022-08-26T02:30:26.043Z,6.15
2022-08-26T02:32:59.549Z,6.25
2022-08-26T02:35:28.343Z,6.20
2022-08-26T02:37:59.208Z,6.88
2022-08-26T02:40:33.604Z,6.80
2022-08-26T02:43:05.032Z,7.13
2022-08-26T02:45:37.531Z,7.43
2022-08-26T02:48:11.351Z,7.57
2022-08-26T02:50:40.608Z,8.15
2022-08-26T02:53:13.517Z,6.78
2022-08-26T02:55:43.949Z,6.75
2022-08-26T02:58:12.411Z,7.10
2022-08-26T03:00:52.749Z,6.60
2022-08-26T03:03:23.709Z,6.05
2022-08-26T03:05:52.762Z,6.53
2022-08-26T03:08:23.090Z,5.97
2022-08-26T03:10:52.993Z,5.68
2022-08-26T03:13:21.500Z,6.18
2022-08-26T03:15:50.127Z,6.05
2022-08-26T03:18:18.548Z,5.68
2022-08-26T03:20:49.055Z,6.40
2022-08-26T03:23:17.510Z,5.82
2022-08-26T03:25:52.488Z,6.38
2022-08-26T03:28:21.588Z,6.05
2022-08-26T03:30:49.254Z,6.28
2022-08-26T03:33:19.053Z,5.88
2022-08-26T03:35:50.692Z,5.95
2022-08-26T03:38:25.111Z,6.38
2022-08-26T03:40:55.593Z,6.72
2022-08-26T03:43:26.767Z,6.32
2022-08-26T03:45:55.253Z,6.53
2022-08-26T03:48:23.659Z,6.63
2022-08-26T03:50:52.304Z,6.13
2022-08-26T03:53:21.870Z,5.80
2022-08-26T03:55:52.010Z,5.90
2022-08-26T03:58:24.121Z,6.63
2022-08-26T04:00:55.374Z,7.38
2022-08-26T04:03:38.597Z,6.82
2022-08-26T04:06:08.091Z,6.72
2022-08-26T04:08:38.121Z,6.57
2022-08-26T04:11:07.771Z,7.35
2022-08-26T04:13:37.642Z,7.10
2022-08-26T04:16:07.481Z,7.35
2022-08-26T04:18:44.473Z,6.32
2022-08-26T04:21:15.619Z,7.07
2022-08-26T04:23:47.694Z,7.88
2022-08-26T04:26:17.393Z,6.72
2022-08-26T04:28:47.472Z,6.47
2022-08-26T04:31:17.818Z,6.72
2022-08-26T04:33:51.088Z,6.63
2022-08-26T04:36:20.324Z,9.43
2022-08-26T04:38:50.635Z,8.10
2022-08-26T04:41:20.763Z,7.65
2022-08-26T04:43:50.839Z,7.15
2022-08-26T04:46:24.361Z,7.15
2022-08-26T04:48:54.488Z,6.55
2022-08-26T04:51:28.039Z,6.78
2022-08-26T04:53:57.502Z,6.55
2022-08-26T04:56:27.626Z,6.85
2022-08-26T04:58:58.276Z,6.80
2022-08-26T05:01:28.411Z,6.78
2022-08-26T05:03:57.915Z,6.93
2022-08-26T05:06:26.481Z,6.00
2022-08-26T05:08:55.691Z,6.00
2022-08-26T05:11:24.829Z,6.68
2022-08-26T05:13:53.348Z,6.40
2022-08-26T05:16:23.346Z,6.65
2022-08-26T05:18:52.900Z,6.50
2022-08-26T05:21:23.942Z,6.35
2022-08-26T05:23:54.824Z,6.00
2022-08-26T05:26:24.651Z,6.28
2022-08-26T05:28:55.304Z,6.13
2022-08-26T05:31:29.729Z,6.30
2022-08-26T05:33:59.580Z,7.22
2022-08-26T05:36:35.358Z,7.22
2022-08-26T05:39:06.411Z,6.32
2022-08-26T05:41:38.297Z,6.90
2022-08-26T05:44:10.342Z,5.93
2022-08-26T05:46:41.773Z,6.63
2022-08-26T05:49:12.294Z,5.75
2022-08-26T05:51:41.793Z,6.18
2022-08-26T05:54:10.765Z,6.55
2022-08-26T05:56:39.815Z,6.13
2022-08-26T05:59:16.613Z,5.90
2022-08-26T06:01:51.209Z,5.43
2022-08-26T06:04:20.039Z,5.63
2022-08-26T06:06:48.761Z,5.30
2022-08-26T06:09:18.311Z,5.95
2022-08-26T06:11:46.953Z,5.80
2022-08-26T06:14:17.811Z,5.70
2022-08-26T06:16:47.111Z,5.60
2022-08-26T06:19:17.461Z,5.00
2022-08-26T06:21:51.361Z,5.25
2022-08-26T06:24:41.125Z,5.40
2022-08-26T06:27:13.632Z,5.22
2022-08-26T06:29:42.902Z,4.50
2022-08-26T06:32:11.828Z,4.97
2022-08-26T06:34:41.729Z,4.78
2022-08-26T06:37:10.149Z,4.70
2022-08-26T06:39:41.158Z,5.03
2022-08-26T06:42:10.994Z,4.85
2022-08-26T06:44:41.644Z,4.78
2022-08-26T06:47:13.226Z,5.78
2022-08-26T06:49:44.345Z,4.68
2022-08-26T06:52:12.793Z,4.80
2022-08-26T06:54:43.199Z,5.30
2022-08-26T06:57:14.364Z,4.95
2022-08-26T06:59:45.330Z,5.47
2022-08-26T07:02:14.669Z,4.82
2022-08-26T07:04:44.864Z,5.05
2022-08-26T07:07:17.011Z,5.30
2022-08-26T07:09:46.904Z,4.57
2022-08-26T07:12:18.276Z,5.35
2022-08-26T07:14:47.557Z,5.57
2022-08-26T07:17:17.050Z,4.38
2022-08-26T07:19:49.815Z,4.95
2022-08-26T07:22:18.772Z,4.72
2022-08-26T07:24:47.247Z,4.22
2022-08-26T07:27:17.716Z,4.70
2022-08-26T07:29:46.611Z,5.35
2022-08-26T07:32:17.519Z,4.47
2022-08-26T07:34:48.082Z,5.05
2022-08-26T07:37:16.801Z,4.93
2022-08-26T07:39:46.344Z,4.53
2022-08-26T07:42:18.501Z,4.70
2022-08-26T07:44:47.281Z,4.75
2022-08-26T07:47:24.760Z,4.70
2022-08-26T07:49:57.746Z,5.05
2022-08-26T07:52:30.034Z,4.50
2022-08-26T07:55:01.646Z,4.72
2022-08-26T07:57:31.030Z,4.63
2022-08-26T08:00:00.239Z,4.45
2022-08-26T08:02:30.897Z,4.47
2022-08-26T08:05:00.960Z,4.30
2022-08-26T08:07:44.256Z,4.68
2022-08-26T08:10:19.000Z,7.78
2022-08-26T08:12:50.752Z,5.82
2022-08-26T08:15:24.949Z,5.10
2022-08-26T08:17:55.576Z,5.03
2022-08-26T08:20:29.874Z,5.13
2022-08-26T08:22:58.515Z,5.72
2022-08-26T08:25:27.007Z,5.90
2022-08-26T08:27:55.468Z,5.28
2022-08-26T08:30:25.616Z,5.75
2022-08-26T08:32:54.877Z,5.78
2022-08-26T08:35:26.324Z,5.25
2022-08-26T08:37:56.590Z,6.00
2022-08-26T08:40:27.887Z,5.72
2022-08-26T08:43:03.748Z,6.20
2022-08-26T08:45:37.867Z,5.85
2022-08-26T08:48:16.908Z,6.75
2022-08-26T08:50:48.812Z,6.85
2022-08-26T08:53:25.090Z,5.47
2022-08-26T08:56:07.676Z,4.78
2022-08-26T08:58:53.555Z,5.35
2022-08-26T09:01:46.780Z,5.00
2022-08-26T09:05:08.224Z,4.80
2022-08-26T09:07:40.530Z,5.75
2022-08-26T09:10:30.657Z,5.15
2022-08-26T09:13:00.444Z,5.00
2022-08-26T09:15:41.225Z,5.18
2022-08-26T09:18:22.068Z,6.22
2022-08-26T09:20:57.650Z,5.60
2022-08-26T09:23:27.145Z,4.80
2022-08-26T09:26:02.579Z,5.13
2022-08-26T09:28:32.449Z,5.18
2022-08-26T09:31:14.073Z,4.65
2022-08-26T09:33:43.529Z,4.85
2022-08-26T09:36:22.825Z,4.82
2022-08-26T09:38:55.072Z,5.38
2022-08-26T09:41:32.122Z,4.70
2022-08-26T09:44:17.814Z,5.00
2022-08-26T09:46:55.808Z,4.63
2022-08-26T09:49:36.010Z,4.57
2022-08-26T09:52:21.337Z,4.70
2022-08-26T09:55:04.916Z,4.28
2022-08-26T09:57:37.814Z,4.47
2022-08-26T10:00:31.200Z,4.45
2022-08-26T10:03:02.620Z,4.00
2022-08-26T10:05:40.266Z,3.72
2022-08-26T10:08:29.964Z,4.55
2022-08-26T10:11:01.786Z,4.90
2022-08-26T10:13:37.079Z,4.43
2022-08-26T10:16:17.784Z,4.72
2022-08-26T10:18:59.446Z,5.32
2022-08-26T10:21:35.034Z,5.10
2022-08-26T10:24:06.029Z,5.30
2022-08-26T10:26:43.473Z,5.57
2022-08-26T10:29:19.897Z,5.30
2022-08-26T10:31:53.414Z,5.70
2022-08-26T10:34:27.393Z,4.95
2022-08-26T10:37:14.525Z,6.05
2022-08-26T10:39:57.008Z,5.10
2022-08-26T10:42:35.113Z,5.22
2022-08-26T10:45:11.786Z,5.43
2022-08-26T10:47:51.441Z,6.03
2022-08-26T10:50:21.189Z,5.68
2022-08-26T10:53:01.309Z,6.05
2022-08-26T10:55:38.254Z,5.88
2022-08-26T10:58:26.141Z,5.97
2022-08-26T11:01:24.268Z,5.28
2022-08-26T11:04:04.296Z,5.50
2022-08-26T11:06:33.072Z,6.05
2022-08-26T11:09:08.607Z,5.00
2022-08-26T11:11:50.059Z,5.40
2022-08-26T11:14:42.021Z,5.47
2022-08-26T11:18:00.037Z,5.20
2022-08-26T11:20:39.288Z,5.30
2022-08-26T11:23:50.393Z,5.70
2022-08-26T11:26:35.915Z,5.65
2022-08-26T11:29:13.663Z,4.93
2022-08-26T11:31:57.653Z,5.68
2022-08-26T11:34:57.925Z,5.38
2022-08-26T11:37:36.101Z,4.70
2022-08-26T11:40:12.955Z,5.82
2022-08-26T11:42:44.895Z,5.30
2022-08-26T11:45:22.403Z,5.05
2022-08-26T11:47:52.346Z,5.82
2022-08-26T11:50:26.104Z,5.32
2022-08-26T11:53:01.708Z,5.20
2022-08-26T11:55:33.481Z,6.15
2022-08-26T11:58:04.832Z,5.45
2022-08-26T12:00:38.482Z,5.72
2022-08-26T12:03:20.019Z,5.55
2022-08-26T12:05:55.037Z,5.57
2022-08-26T12:08:31.099Z,5.28
2022-08-26T12:11:08.564Z,5.45
2022-08-26T12:13:39.297Z,6.47
2022-08-26T12:16:08.528Z,7.03
2022-08-26T12:18:39.400Z,5.45
2022-08-26T12:21:22.342Z,5.88
2022-08-26T12:23:55.632Z,6.70
2022-08-26T12:26:28.257Z,4.95
2022-08-26T12:29:00.025Z,5.13
2022-08-26T12:31:32.640Z,6.15
2022-08-26T12:34:04.515Z,5.75
2022-08-26T12:36:42.329Z,5.75
2022-08-26T12:39:15.854Z,5.43
2022-08-26T12:41:53.903Z,5.85
2022-08-26T12:44:53.263Z,5.43
2022-08-26T12:47:42.052Z,4.97
2022-08-26T12:50:19.577Z,5.10
2022-08-26T12:53:00.548Z,5.55
2022-08-26T12:55:40.118Z,5.40
2022-08-26T12:58:27.705Z,6.32
2022-08-26T13:00:58.443Z,5.18
2022-08-26T13:03:38.306Z,5.70
2022-08-26T13:06:16.146Z,5.47
2022-08-26T13:08:47.754Z,5.47
2022-08-26T13:11:20.406Z,5.00
2022-08-26T13:13:51.712Z,4.75
2022-08-26T13:16:21.366Z,4.70
2022-08-26T13:18:51.623Z,5.55
2022-08-26T13:21:22.710Z,4.60
2022-08-26T13:23:52.993Z,4.90
2022-08-26T13:26:21.773Z,4.82
2022-08-26T13:29:01.703Z,4.07
2022-08-26T13:31:32.424Z,4.47
2022-08-26T13:34:02.345Z,4.53
2022-08-26T13:36:30.914Z,4.70
2022-08-26T13:39:00.625Z,3.70
2022-08-26T13:41:29.822Z,4.15
2022-08-26T13:43:59.605Z,3.42
2022-08-26T13:46:28.763Z,4.38
2022-08-26T13:48:58.199Z,3.60
2022-08-26T13:51:28.320Z,4.30
2022-08-26T13:53:57.322Z,4.57
2022-08-26T13:56:29.795Z,4.70
2022-08-26T13:58:59.536Z,4.40
2022-08-26T14:01:29.383Z,4.10
2022-08-26T14:03:57.908Z,4.55
2022-08-26T14:06:26.523Z,4.65
2022-08-26T14:08:54.922Z,4.75
2022-08-26T14:11:24.864Z,4.22
2022-08-26T14:13:54.785Z,5.78
2022-08-26T14:16:27.503Z,4.88
2022-08-26T14:18:56.184Z,4.90
2022-08-26T14:21:25.956Z,5.50
2022-08-26T14:23:59.003Z,4.47
2022-08-26T14:26:30.091Z,4.85
2022-08-26T14:29:00.867Z,5.10
2022-08-26T14:31:31.784Z,5.30
2022-08-26T14:34:05.284Z,4.88
2022-08-26T14:36:35.230Z,5.05
2022-08-26T14:39:06.591Z,4.45
2022-08-26T14:41:37.730Z,5.47
2022-08-26T14:44:12.728Z,4.72
2022-08-26T14:46:46.435Z,5.18
2022-08-26T14:49:15.458Z,5.18
2022-08-26T14:51:44.035Z,4.82
2022-08-26T14:54:13.109Z,4.68
2022-08-26T14:56:47.603Z,5.50
2022-08-26T14:59:20.666Z,5.35
2022-08-26T15:01:49.808Z,4.75
2022-08-26T15:04:18.594Z,4.80
2022-08-26T15:06:47.207Z,5.43
2022-08-26T15:09:16.298Z,4.65
2022-08-26T15:11:44.799Z,5.28
2022-08-26T15:14:19.176Z,7.57
2022-08-26T15:16:48.822Z,5.20
2022-08-26T15:19:18.020Z,7.68
2022-08-26T15:21:47.353Z,5.53
2022-08-26T15:24:18.601Z,5.30
2022-08-26T15:26:49.714Z,4.95
2022-08-26T15:29:20.092Z,5.80
2022-08-26T15:31:49.201Z,5.57
2022-08-26T15:34:18.155Z,5.82
2022-08-26T15:36:48.877Z,5.43
2022-08-26T15:39:18.576Z,6.22
2022-08-26T15:41:48.140Z,5.20
2022-08-26T15:44:19.239Z,5.13
2022-08-26T15:46:51.225Z,5.35
2022-08-26T15:49:22.286Z,5.20
2022-08-26T15:51:51.411Z,5.13
2022-08-26T15:54:23.108Z,5.10
2022-08-26T15:56:52.214Z,5.18
2022-08-26T15:59:23.223Z,4.15
2022-08-26T16:01:52.640Z,3.90
2022-08-26T16:04:21.506Z,3.70
2022-08-26T16:06:52.178Z,3.47
2022-08-26T16:09:24.306Z,3.88
2022-08-26T16:11:53.162Z,5.03
2022-08-26T16:14:24.038Z,3.65
2022-08-26T16:16:53.348Z,3.22
2022-08-26T16:19:22.186Z,3.88
2022-08-26T16:21:51.500Z,3.33
2022-08-26T16:24:24.820Z,3.40
2022-08-26T16:26:55.856Z,2.90
2022-08-26T16:29:25.740Z,3.67
2022-08-26T16:31:54.794Z,4.03
2022-08-26T16:34:23.962Z,3.85
2022-08-26T16:36:53.012Z,3.55
2022-08-26T16:39:21.326Z,3.90
2022-08-26T16:41:49.646Z,3.78
2022-08-26T16:44:18.158Z,4.03
2022-08-26T16:46:48.047Z,3.90
2022-08-26T16:49:16.436Z,3.85
2022-08-26T16:51:45.156Z,3.88
2022-08-26T16:54:13.796Z,4.15
2022-08-26T16:56:42.325Z,4.10
2022-08-26T16:59:12.174Z,3.92
2022-08-26T17:01:40.704Z,3.40
2022-08-26T17:04:10.473Z,3.83
2022-08-26T17:06:39.167Z,3.47
2022-08-26T17:09:07.700Z,3.05
2022-08-26T17:11:36.563Z,3.10
2022-08-26T17:14:05.330Z,2.90
2022-08-26T17:16:34.294Z,2.35
2022-08-26T17:19:04.469Z,2.60
2022-08-26T17:21:36.625Z,3.15
2022-08-26T17:24:06.591Z,2.13
2022-08-26T17:26:35.820Z,2.40
2022-08-26T17:29:04.801Z,1.55
2022-08-26T17:31:33.300Z,1.85
2022-08-26T17:34:01.883Z,1.30
2022-08-26T17:36:30.328Z,1.58
2022-08-26T17:39:00.255Z,1.70
2022-08-26T17:41:28.856Z,1.70
2022-08-26T17:43:57.671Z,1.80
2022-08-26T17:46:26.666Z,1.50
2022-08-26T17:48:55.471Z,1.90
2022-08-26T17:51:23.890Z,2.08
2022-08-26T17:53:53.320Z,2.00
2022-08-26T17:56:26.057Z,2.03
2022-08-26T17:58:56.914Z,2.00
2022-08-26T18:01:27.952Z,2.15
2022-08-26T18:04:00.371Z,2.33
2022-08-26T18:06:30.876Z,2.05
2022-08-26T18:08:59.919Z,3.20
2022-08-26T18:11:31.221Z,3.00
2022-08-26T18:14:00.462Z,3.58
2022-08-26T18:16:31.827Z,3.33
2022-08-26T18:19:02.156Z,3.70
2022-08-26T18:21:30.802Z,3.60
2022-08-26T18:23:59.281Z,3.55
2022-08-26T18:26:32.593Z,3.80
2022-08-26T18:29:01.782Z,4.03
2022-08-26T18:31:31.610Z,3.92
2022-08-26T18:34:00.801Z,4.35
2022-08-26T18:36:32.753Z,4.53
2022-08-26T18:39:02.262Z,4.07
2022-08-26T18:41:35.809Z,4.10
2022-08-26T18:44:04.961Z,4.20
2022-08-26T18:46:33.489Z,4.35
2022-08-26T18:49:02.018Z,4.32
2022-08-26T18:51:34.057Z,4.60
2022-08-26T18:54:05.538Z,4.82
2022-08-26T18:56:37.387Z,4.18
2022-08-26T18:59:07.879Z,4.65
2022-08-26T19:01:39.020Z,4.60
2022-08-26T19:04:09.310Z,5.03
2022-08-26T19:06:48.377Z,4.28
2022-08-26T19:09:17.965Z,4.30
2022-08-26T19:11:49.618Z,5.15
2022-08-26T19:14:19.281Z,4.75
2022-08-26T19:16:52.352Z,4.93
2022-08-26T19:19:23.850Z,4.68
2022-08-26T19:21:54.421Z,3.97
2022-08-26T19:24:27.396Z,4.60
2022-08-26T19:27:01.160Z,6.45
2022-08-26T19:29:32.188Z,9.75
2022-08-26T19:32:01.905Z,6.40
2022-08-26T19:34:30.532Z,4.78
2022-08-26T19:36:59.320Z,5.68
2022-08-26T19:39:28.165Z,5.82
2022-08-26T19:41:59.013Z,5.55
2022-08-26T19:44:44.914Z,5.00
2022-08-26T19:47:14.018Z,5.20
2022-08-26T19:49:42.490Z,4.82
2022-08-26T19:52:12.168Z,5.47
2022-08-26T19:54:41.420Z,5.10
2022-08-26T19:57:11.272Z,5.75
2022-08-26T19:59:40.184Z,5.55
2022-08-26T20:02:11.001Z,6.07
2022-08-26T20:04:41.649Z,5.60
2022-08-26T20:07:14.221Z,5.25
2022-08-26T20:09:48.038Z,4.97
2022-08-26T20:12:18.650Z,4.70
2022-08-26T20:14:47.101Z,5.15
2022-08-26T20:17:16.970Z,5.85
2022-08-26T20:20:02.863Z,5.22
2022-08-26T20:22:31.586Z,5.03
2022-08-26T20:25:00.536Z,4.90
2022-08-26T20:27:35.561Z,4.55
2022-08-26T20:30:10.138Z,5.13
2022-08-26T20:32:39.398Z,5.10
2022-08-26T20:35:10.817Z,5.18
2022-08-26T20:37:40.159Z,5.00
2022-08-26T20:40:11.255Z,5.07
2022-08-26T20:42:41.032Z,6.97
2022-08-26T20:45:10.678Z,7.85
2022-08-26T20:47:39.105Z,4.80
2022-08-26T20:50:09.133Z,5.43
2022-08-26T20:52:37.669Z,5.68
2022-08-26T20:55:07.362Z,5.45
2022-08-26T20:57:35.797Z,5.30
2022-08-26T21:00:07.455Z,5.60
2022-08-26T21:02:36.889Z,5.50
2022-08-26T21:05:06.714Z,5.63
2022-08-26T21:07:35.942Z,5.80
2022-08-26T21:10:04.973Z,6.47
2022-08-26T21:12:33.564Z,6.15
2022-08-26T21:15:02.042Z,5.88
2022-08-26T21:17:32.289Z,6.28
2022-08-26T21:20:00.929Z,6.47
2022-08-26T21:22:30.648Z,6.22
2022-08-26T21:24:59.092Z,6.85
2022-08-26T21:27:27.427Z,6.15
2022-08-26T21:29:56.964Z,6.97
2022-08-26T21:32:25.317Z,6.82
2022-08-26T21:34:57.538Z,6.00
2022-08-26T21:37:27.868Z,6.75
2022-08-26T21:39:57.883Z,7.28
2022-08-26T21:42:27.415Z,7.22
2022-08-26T21:44:55.883Z,6.70
2022-08-26T21:47:24.432Z,6.15
2022-08-26T21:49:53.207Z,7.18
2022-08-26T21:52:23.067Z,6.88
2022-08-26T21:54:51.646Z,6.93
2022-08-26T21:57:20.963Z,6.15
2022-08-26T21:59:49.275Z,6.68
2022-08-26T22:02:17.796Z,6.80
2022-08-26T22:04:48.870Z,7.47
2022-08-26T22:07:19.158Z,6.65
2022-08-26T22:09:49.632Z,6.47
2022-08-26T22:12:19.154Z,6.53
2022-08-26T22:14:48.060Z,6.03
2022-08-26T22:17:16.894Z,7.13
2022-08-26T22:19:46.473Z,7.20
2022-08-26T22:22:15.422Z,6.65
2022-08-26T22:24:44.262Z,6.90
2022-08-26T22:27:15.182Z,6.60
2022-08-26T22:29:43.685Z,7.28
2022-08-26T22:32:12.156Z,6.78
2022-08-26T22:34:41.811Z,7.45
2022-08-26T22:37:10.207Z,7.30
2022-08-26T22:39:39.179Z,7.57
2022-08-26T22:42:07.761Z,7.45
2022-08-26T22:44:37.547Z,7.70
2022-08-26T22:47:06.509Z,6.90
2022-08-26T22:49:34.921Z,7.95
2022-08-26T22:52:03.853Z,7.55
2022-08-26T22:54:32.955Z,8.18
2022-08-26T22:57:01.691Z,7.40
2022-08-26T22:59:30.042Z,8.05
2022-08-26T23:01:59.786Z,8.82
2022-08-26T23:04:28.392Z,8.13
2022-08-26T23:06:56.879Z,8.15
2022-08-26T23:09:25.273Z,8.05
2022-08-26T23:11:55.989Z,7.93
2022-08-26T23:14:25.776Z,8.13
2022-08-26T23:16:54.314Z,8.05
2022-08-26T23:19:24.659Z,8.25
2022-08-26T23:21:53.349Z,8.70
2022-08-26T23:24:22.480Z,9.77
2022-08-26T23:26:50.872Z,9.50
2022-08-26T23:29:19.588Z,8.68
2022-08-26T23:31:47.971Z,9.00
2022-08-26T23:34:34.239Z,9.50
2022-08-26T23:37:06.202Z,9.75
2022-08-26T23:39:36.487Z,11.10
2022-08-26T23:42:06.562Z,10.77
2022-08-26T23:44:35.690Z,10.82
2022-08-26T23:47:05.135Z,11.43
2022-08-26T23:49:34.258Z,13.95
2022-08-26T23:52:23.826Z,14.00
2022-08-26T23:54:52.823Z,14.88
2022-08-26T23:57:24.131Z,13.35
2022-08-26T23:59:53.029Z,14.00
